sensor_id;sensor_type;location;lat;lon;timestamp;temperature;humidity
18101;DHT22;9177;49.156;8.142;2023-07-02T00:00:07;26.00;98.80
18101;DHT22;9177;49.156;8.142;2023-07-02T00:02:34;26.00;98.80
18101;DHT22;9177;49.156;8.142;2023-07-02T00:05:03;26.00;98.80
18101;DHT22;9177;49.156;8.142;2023-07-02T00:07:30;26.00;98.80
18101;DHT22;9177;49.156;8.142;2023-07-02T00:09:58;26.00;98.80
18101;DHT22;9177;49.156;8.142;2023-07-02T00:12:25;25.90;98.70
18101;DHT22;9177;49.156;8.142;2023-07-02T00:14:52;25.90;98.70
18101;DHT22;9177;49.156;8.142;2023-07-02T00:17:19;25.90;98.70
18101;DHT22;9177;49.156;8.142;2023-07-02T00:19:46;26.00;98.70
18101;DHT22;9177;49.156;8.142;2023-07-02T00:22:18;25.90;98.70
18101;DHT22;9177;49.156;8.142;2023-07-02T00:24:45;25.90;98.70
18101;DHT22;9177;49.156;8.142;2023-07-02T00:27:12;26.00;98.70
18101;DHT22;9177;49.156;8.142;2023-07-02T00:29:39;26.00;98.70
18101;DHT22;9177;49.156;8.142;2023-07-02T00:32:06;25.90;98.60
18101;DHT22;9177;49.156;8.142;2023-07-02T00:34:33;25.90;98.60
18101;DHT22;9177;49.156;8.142;2023-07-02T00:37:00;25.90;98.60
18101;DHT22;9177;49.156;8.142;2023-07-02T00:39:28;25.90;98.60
18101;DHT22;9177;49.156;8.142;2023-07-02T00:42:00;25.90;98.60
18101;DHT22;9177;49.156;8.142;2023-07-02T00:44:28;25.90;98.60
18101;DHT22;9177;49.156;8.142;2023-07-02T00:46:55;26.00;98.60
18101;DHT22;9177;49.156;8.142;2023-07-02T00:49:22;25.90;98.60
18101;DHT22;9177;49.156;8.142;2023-07-02T00:51:49;26.00;98.60
18101;DHT22;9177;49.156;8.142;2023-07-02T00:54:16;25.90;98.50
18101;DHT22;9177;49.156;8.142;2023-07-02T00:56:44;25.90;98.50
18101;DHT22;9177;49.156;8.142;2023-07-02T00:59:11;25.90;98.50
18101;DHT22;9177;49.156;8.142;2023-07-02T01:01:38;25.90;98.50
18101;DHT22;9177;49.156;8.142;2023-07-02T01:04:06;25.90;98.50
18101;DHT22;9177;49.156;8.142;2023-07-02T01:06:36;25.90;98.50
18101;DHT22;9177;49.156;8.142;2023-07-02T01:09:06;25.90;98.50
18101;DHT22;9177;49.156;8.142;2023-07-02T01:11:34;25.90;98.50
18101;DHT22;9177;49.156;8.142;2023-07-02T01:14:11;25.90;98.50
18101;DHT22;9177;49.156;8.142;2023-07-02T01:16:42;25.90;98.50
18101;DHT22;9177;49.156;8.142;2023-07-02T01:19:13;25.90;98.50
18101;DHT22;9177;49.156;8.142;2023-07-02T01:21:46;25.90;98.40
18101;DHT22;9177;49.156;8.142;2023-07-02T01:24:13;25.90;98.40
18101;DHT22;9177;49.156;8.142;2023-07-02T01:26:40;25.90;98.40
18101;DHT22;9177;49.156;8.142;2023-07-02T01:29:14;25.90;98.40
18101;DHT22;9177;49.156;8.142;2023-07-02T01:31:41;25.90;98.40
18101;DHT22;9177;49.156;8.142;2023-07-02T01:34:08;25.90;98.40
18101;DHT22;9177;49.156;8.142;2023-07-02T01:36:36;25.90;98.40
18101;DHT22;9177;49.156;8.142;2023-07-02T01:39:04;25.90;98.40
18101;DHT22;9177;49.156;8.142;2023-07-02T01:41:36;25.90;98.40
18101;DHT22;9177;49.156;8.142;2023-07-02T01:44:04;25.90;98.40
18101;DHT22;9177;49.156;8.142;2023-07-02T01:46:31;25.90;98.30
18101;DHT22;9177;49.156;8.142;2023-07-02T01:48:57;25.90;98.30
18101;DHT22;9177;49.156;8.142;2023-07-02T01:51:24;25.90;98.30
18101;DHT22;9177;49.156;8.142;2023-07-02T01:53:51;25.90;98.30
18101;DHT22;9177;49.156;8.142;2023-07-02T01:56:19;25.90;98.30
18101;DHT22;9177;49.156;8.142;2023-07-02T01:58:46;25.90;98.30
18101;DHT22;9177;49.156;8.142;2023-07-02T02:01:13;25.90;98.30
18101;DHT22;9177;49.156;8.142;2023-07-02T02:03:40;25.90;98.30
18101;DHT22;9177;49.156;8.142;2023-07-02T02:06:07;25.90;98.30
18101;DHT22;9177;49.156;8.142;2023-07-02T02:08:34;25.90;98.30
18101;DHT22;9177;49.156;8.142;2023-07-02T02:11:01;25.90;98.30
18101;DHT22;9177;49.156;8.142;2023-07-02T02:13:29;25.90;98.70
18101;DHT22;9177;49.156;8.142;2023-07-02T02:15:56;25.90;98.30
18101;DHT22;9177;49.156;8.142;2023-07-02T02:18:23;25.90;98.30
18101;DHT22;9177;49.156;8.142;2023-07-02T02:20:49;25.90;98.30
18101;DHT22;9177;49.156;8.142;2023-07-02T02:23:16;25.90;98.30
18101;DHT22;9177;49.156;8.142;2023-07-02T02:25:43;25.90;98.20
18101;DHT22;9177;49.156;8.142;2023-07-02T02:28:10;25.90;98.20
18101;DHT22;9177;49.156;8.142;2023-07-02T02:30:38;25.90;98.20
18101;DHT22;9177;49.156;8.142;2023-07-02T02:33:05;25.90;98.20
18101;DHT22;9177;49.156;8.142;2023-07-02T02:35:34;25.90;98.20
18101;DHT22;9177;49.156;8.142;2023-07-02T02:38:03;25.90;98.20
18101;DHT22;9177;49.156;8.142;2023-07-02T02:40:30;25.90;98.20
18101;DHT22;9177;49.156;8.142;2023-07-02T02:42:57;25.90;98.20
18101;DHT22;9177;49.156;8.142;2023-07-02T02:45:24;25.90;98.20
18101;DHT22;9177;49.156;8.142;2023-07-02T02:47:52;25.90;98.20
18101;DHT22;9177;49.156;8.142;2023-07-02T02:50:19;25.90;98.20
18101;DHT22;9177;49.156;8.142;2023-07-02T02:52:46;25.90;98.20
18101;DHT22;9177;49.156;8.142;2023-07-02T02:55:13;25.90;98.10
18101;DHT22;9177;49.156;8.142;2023-07-02T02:57:40;25.90;98.10
18101;DHT22;9177;49.156;8.142;2023-07-02T03:00:09;25.90;98.10
18101;DHT22;9177;49.156;8.142;2023-07-02T03:02:37;25.90;98.10
18101;DHT22;9177;49.156;8.142;2023-07-02T03:05:06;25.90;98.10
18101;DHT22;9177;49.156;8.142;2023-07-02T03:07:33;25.90;98.10
18101;DHT22;9177;49.156;8.142;2023-07-02T03:10:00;25.90;98.10
18101;DHT22;9177;49.156;8.142;2023-07-02T03:12:27;25.90;98.00
18101;DHT22;9177;49.156;8.142;2023-07-02T03:14:54;25.90;98.00
18101;DHT22;9177;49.156;8.142;2023-07-02T03:17:21;25.90;98.00
18101;DHT22;9177;49.156;8.142;2023-07-02T03:19:48;25.90;98.00
18101;DHT22;9177;49.156;8.142;2023-07-02T03:22:16;25.90;98.00
18101;DHT22;9177;49.156;8.142;2023-07-02T03:24:43;25.90;98.00
18101;DHT22;9177;49.156;8.142;2023-07-02T03:27:10;25.90;98.00
18101;DHT22;9177;49.156;8.142;2023-07-02T03:29:37;25.90;97.90
18101;DHT22;9177;49.156;8.142;2023-07-02T03:32:04;25.90;97.90
18101;DHT22;9177;49.156;8.142;2023-07-02T03:34:31;25.90;97.90
18101;DHT22;9177;49.156;8.142;2023-07-02T03:37:00;25.90;97.90
18101;DHT22;9177;49.156;8.142;2023-07-02T03:39:28;25.90;97.90
18101;DHT22;9177;49.156;8.142;2023-07-02T03:41:54;25.80;97.80
18101;DHT22;9177;49.156;8.142;2023-07-02T03:44:21;25.90;97.90
18101;DHT22;9177;49.156;8.142;2023-07-02T03:46:48;25.90;97.80
18101;DHT22;9177;49.156;8.142;2023-07-02T03:49:15;25.90;97.80
18101;DHT22;9177;49.156;8.142;2023-07-02T03:51:42;25.90;97.80
18101;DHT22;9177;49.156;8.142;2023-07-02T03:54:08;25.80;97.70
18101;DHT22;9177;49.156;8.142;2023-07-02T03:56:36;25.80;97.70
18101;DHT22;9177;49.156;8.142;2023-07-02T03:59:03;25.80;97.70
18101;DHT22;9177;49.156;8.142;2023-07-02T04:01:30;25.80;97.70
18101;DHT22;9177;49.156;8.142;2023-07-02T04:03:57;25.90;97.70
18101;DHT22;9177;49.156;8.142;2023-07-02T04:06:24;25.80;97.70
18101;DHT22;9177;49.156;8.142;2023-07-02T04:08:50;25.80;97.60
18101;DHT22;9177;49.156;8.142;2023-07-02T04:11:17;25.80;97.60
18101;DHT22;9177;49.156;8.142;2023-07-02T04:13:45;25.90;97.70
18101;DHT22;9177;49.156;8.142;2023-07-02T04:16:13;25.90;97.60
18101;DHT22;9177;49.156;8.142;2023-07-02T04:18:40;25.80;97.50
18101;DHT22;9177;49.156;8.142;2023-07-02T04:21:06;25.80;97.50
18101;DHT22;9177;49.156;8.142;2023-07-02T04:23:33;25.90;97.60
18101;DHT22;9177;49.156;8.142;2023-07-02T04:26:00;25.90;97.60
18101;DHT22;9177;49.156;8.142;2023-07-02T04:28:27;25.80;97.50
18101;DHT22;9177;49.156;8.142;2023-07-02T04:30:55;25.80;97.50
18101;DHT22;9177;49.156;8.142;2023-07-02T04:33:21;25.80;97.50
18101;DHT22;9177;49.156;8.142;2023-07-02T04:35:48;25.90;97.50
18101;DHT22;9177;49.156;8.142;2023-07-02T04:38:16;25.80;97.40
18101;DHT22;9177;49.156;8.142;2023-07-02T04:40:43;25.80;97.40
18101;DHT22;9177;49.156;8.142;2023-07-02T04:43:10;25.80;97.40
18101;DHT22;9177;49.156;8.142;2023-07-02T04:45:37;25.80;97.40
18101;DHT22;9177;49.156;8.142;2023-07-02T04:48:06;25.80;97.40
18101;DHT22;9177;49.156;8.142;2023-07-02T04:50:33;25.80;97.40
18101;DHT22;9177;49.156;8.142;2023-07-02T04:53:00;25.80;97.40
18101;DHT22;9177;49.156;8.142;2023-07-02T04:55:27;25.80;97.30
18101;DHT22;9177;49.156;8.142;2023-07-02T04:57:54;25.80;97.30
18101;DHT22;9177;49.156;8.142;2023-07-02T05:00:20;25.80;97.30
18101;DHT22;9177;49.156;8.142;2023-07-02T05:02:48;25.80;97.30
18101;DHT22;9177;49.156;8.142;2023-07-02T05:05:16;25.80;97.30
18101;DHT22;9177;49.156;8.142;2023-07-02T05:07:44;25.80;97.20
18101;DHT22;9177;49.156;8.142;2023-07-02T05:10:10;25.90;97.20
18101;DHT22;9177;49.156;8.142;2023-07-02T05:12:37;25.80;97.20
18101;DHT22;9177;49.156;8.142;2023-07-02T05:15:05;25.80;97.20
18101;DHT22;9177;49.156;8.142;2023-07-02T05:17:32;25.80;97.20
18101;DHT22;9177;49.156;8.142;2023-07-02T05:20:00;25.80;97.20
18101;DHT22;9177;49.156;8.142;2023-07-02T05:22:28;25.80;97.20
18101;DHT22;9177;49.156;8.142;2023-07-02T05:24:55;25.80;97.10
18101;DHT22;9177;49.156;8.142;2023-07-02T05:27:22;25.80;97.10
18101;DHT22;9177;49.156;8.142;2023-07-02T05:29:49;25.80;97.10
18101;DHT22;9177;49.156;8.142;2023-07-02T05:32:16;25.80;97.10
18101;DHT22;9177;49.156;8.142;2023-07-02T05:34:43;25.80;97.10
18101;DHT22;9177;49.156;8.142;2023-07-02T05:37:10;25.80;97.10
18101;DHT22;9177;49.156;8.142;2023-07-02T05:39:38;25.80;97.10
18101;DHT22;9177;49.156;8.142;2023-07-02T05:42:05;25.80;97.10
18101;DHT22;9177;49.156;8.142;2023-07-02T05:44:32;25.80;97.10
18101;DHT22;9177;49.156;8.142;2023-07-02T05:46:58;25.80;97.00
18101;DHT22;9177;49.156;8.142;2023-07-02T05:49:25;25.90;97.10
18101;DHT22;9177;49.156;8.142;2023-07-02T05:51:53;25.80;97.00
18101;DHT22;9177;49.156;8.142;2023-07-02T05:54:19;25.80;97.00
18101;DHT22;9177;49.156;8.142;2023-07-02T05:56:48;25.80;97.00
18101;DHT22;9177;49.156;8.142;2023-07-02T05:59:14;25.90;97.00
18101;DHT22;9177;49.156;8.142;2023-07-02T06:01:44;25.90;97.00
18101;DHT22;9177;49.156;8.142;2023-07-02T06:04:11;25.90;97.00
18101;DHT22;9177;49.156;8.142;2023-07-02T06:06:38;25.80;96.90
18101;DHT22;9177;49.156;8.142;2023-07-02T06:09:05;25.80;97.30
18101;DHT22;9177;49.156;8.142;2023-07-02T06:11:31;25.80;96.90
18101;DHT22;9177;49.156;8.142;2023-07-02T06:14:00;25.80;96.90
18101;DHT22;9177;49.156;8.142;2023-07-02T06:16:26;25.90;96.90
18101;DHT22;9177;49.156;8.142;2023-07-02T06:18:53;25.80;96.80
18101;DHT22;9177;49.156;8.142;2023-07-02T06:21:20;25.90;97.20
18101;DHT22;9177;49.156;8.142;2023-07-02T06:23:47;25.90;96.80
18101;DHT22;9177;49.156;8.142;2023-07-02T06:26:14;25.90;96.80
18101;DHT22;9177;49.156;8.142;2023-07-02T06:28:41;25.90;96.80
18101;DHT22;9177;49.156;8.142;2023-07-02T06:31:10;25.80;96.70
18101;DHT22;9177;49.156;8.142;2023-07-02T06:33:39;25.80;96.70
18101;DHT22;9177;49.156;8.142;2023-07-02T06:36:07;25.90;96.80
18101;DHT22;9177;49.156;8.142;2023-07-02T06:38:34;25.80;96.70
18101;DHT22;9177;49.156;8.142;2023-07-02T06:41:01;25.90;96.80
18101;DHT22;9177;49.156;8.142;2023-07-02T06:43:28;25.90;96.70
18101;DHT22;9177;49.156;8.142;2023-07-02T06:45:55;25.90;96.70
18101;DHT22;9177;49.156;8.142;2023-07-02T06:48:23;25.80;96.60
18101;DHT22;9177;49.156;8.142;2023-07-02T06:50:50;25.90;96.60
18101;DHT22;9177;49.156;8.142;2023-07-02T06:53:17;25.90;96.60
18101;DHT22;9177;49.156;8.142;2023-07-02T06:55:44;25.80;96.60
18101;DHT22;9177;49.156;8.142;2023-07-02T06:58:11;25.90;96.50
18101;DHT22;9177;49.156;8.142;2023-07-02T07:00:38;25.90;96.40
18101;DHT22;9177;49.156;8.142;2023-07-02T07:03:05;25.90;96.30
18101;DHT22;9177;49.156;8.142;2023-07-02T07:05:33;25.80;96.10
18101;DHT22;9177;49.156;8.142;2023-07-02T07:08:00;25.80;96.00
18101;DHT22;9177;49.156;8.142;2023-07-02T07:10:28;25.80;95.90
18101;DHT22;9177;49.156;8.142;2023-07-02T07:12:59;25.80;95.80
18101;DHT22;9177;49.156;8.142;2023-07-02T07:15:26;25.80;95.70
18101;DHT22;9177;49.156;8.142;2023-07-02T07:17:53;25.80;95.60
18101;DHT22;9177;49.156;8.142;2023-07-02T07:20:20;25.80;95.50
18101;DHT22;9177;49.156;8.142;2023-07-02T07:22:49;25.90;95.60
18101;DHT22;9177;49.156;8.142;2023-07-02T07:25:16;25.70;94.90
18101;DHT22;9177;49.156;8.142;2023-07-02T07:27:42;25.30;95.00
18101;DHT22;9177;49.156;8.142;2023-07-02T07:30:10;25.40;95.00
18101;DHT22;9177;49.156;8.142;2023-07-02T07:32:40;25.40;94.90
18101;DHT22;9177;49.156;8.142;2023-07-02T07:35:07;25.50;94.70
18101;DHT22;9177;49.156;8.142;2023-07-02T07:37:34;25.50;94.50
18101;DHT22;9177;49.156;8.142;2023-07-02T07:40:04;25.50;94.50
18101;DHT22;9177;49.156;8.142;2023-07-02T07:42:31;25.50;94.30
18101;DHT22;9177;49.156;8.142;2023-07-02T07:44:58;25.50;94.60
18101;DHT22;9177;49.156;8.142;2023-07-02T07:47:25;25.50;94.20
18101;DHT22;9177;49.156;8.142;2023-07-02T07:49:52;25.40;94.00
18101;DHT22;9177;49.156;8.142;2023-07-02T07:52:20;25.50;94.00
18101;DHT22;9177;49.156;8.142;2023-07-02T07:54:47;25.40;93.80
18101;DHT22;9177;49.156;8.142;2023-07-02T07:57:16;25.50;93.70
18101;DHT22;9177;49.156;8.142;2023-07-02T07:59:43;25.40;93.60
18101;DHT22;9177;49.156;8.142;2023-07-02T08:02:09;25.40;93.70
18101;DHT22;9177;49.156;8.142;2023-07-02T08:04:36;25.50;93.50
18101;DHT22;9177;49.156;8.142;2023-07-02T08:07:03;25.40;93.70
18101;DHT22;9177;49.156;8.142;2023-07-02T08:09:34;25.40;94.00
18101;DHT22;9177;49.156;8.142;2023-07-02T08:12:02;25.60;93.80
18101;DHT22;9177;49.156;8.142;2023-07-02T08:14:31;25.50;93.80
18101;DHT22;9177;49.156;8.142;2023-07-02T08:16:58;25.60;93.80
18101;DHT22;9177;49.156;8.142;2023-07-02T08:19:25;25.70;93.60
18101;DHT22;9177;49.156;8.142;2023-07-02T08:21:52;25.70;93.40
18101;DHT22;9177;49.156;8.142;2023-07-02T08:24:19;25.70;93.40
18101;DHT22;9177;49.156;8.142;2023-07-02T08:26:46;25.80;93.50
18101;DHT22;9177;49.156;8.142;2023-07-02T08:29:15;25.80;93.10
18101;DHT22;9177;49.156;8.142;2023-07-02T08:31:43;25.70;93.00
18101;DHT22;9177;49.156;8.142;2023-07-02T08:34:10;25.70;92.90
18101;DHT22;9177;49.156;8.142;2023-07-02T08:36:37;25.70;92.90
18101;DHT22;9177;49.156;8.142;2023-07-02T08:39:05;25.80;92.70
18101;DHT22;9177;49.156;8.142;2023-07-02T08:41:42;25.70;92.70
18101;DHT22;9177;49.156;8.142;2023-07-02T08:44:11;25.80;92.70
18101;DHT22;9177;49.156;8.142;2023-07-02T08:46:38;25.90;92.50
18101;DHT22;9177;49.156;8.142;2023-07-02T08:49:08;26.00;91.90
18101;DHT22;9177;49.156;8.142;2023-07-02T08:51:35;25.70;92.10
18101;DHT22;9177;49.156;8.142;2023-07-02T08:54:03;25.70;92.40
18101;DHT22;9177;49.156;8.142;2023-07-02T08:56:30;25.70;92.30
18101;DHT22;9177;49.156;8.142;2023-07-02T08:58:57;25.80;92.30
18101;DHT22;9177;49.156;8.142;2023-07-02T09:01:24;25.80;92.10
18101;DHT22;9177;49.156;8.142;2023-07-02T09:03:58;25.70;92.10
18101;DHT22;9177;49.156;8.142;2023-07-02T09:06:28;25.70;92.30
18101;DHT22;9177;49.156;8.142;2023-07-02T09:09:03;25.70;92.20
18101;DHT22;9177;49.156;8.142;2023-07-02T09:11:31;25.60;92.10
18101;DHT22;9177;49.156;8.142;2023-07-02T09:13:58;25.60;92.10
18101;DHT22;9177;49.156;8.142;2023-07-02T09:16:28;25.60;92.10
18101;DHT22;9177;49.156;8.142;2023-07-02T09:18:57;25.40;92.10
18101;DHT22;9177;49.156;8.142;2023-07-02T09:21:27;25.30;92.30
18101;DHT22;9177;49.156;8.142;2023-07-02T09:23:55;25.20;92.30
18101;DHT22;9177;49.156;8.142;2023-07-02T09:26:22;25.10;92.40
18101;DHT22;9177;49.156;8.142;2023-07-02T09:28:50;25.00;92.60
18101;DHT22;9177;49.156;8.142;2023-07-02T09:31:17;25.00;92.50
18101;DHT22;9177;49.156;8.142;2023-07-02T09:33:44;25.00;92.60
18101;DHT22;9177;49.156;8.142;2023-07-02T09:36:12;25.10;92.40
18101;DHT22;9177;49.156;8.142;2023-07-02T09:38:41;25.00;92.70
18101;DHT22;9177;49.156;8.142;2023-07-02T09:41:09;25.00;92.60
18101;DHT22;9177;49.156;8.142;2023-07-02T09:43:38;24.90;92.80
18101;DHT22;9177;49.156;8.142;2023-07-02T09:46:06;25.00;92.60
18101;DHT22;9177;49.156;8.142;2023-07-02T09:48:35;25.00;92.50
18101;DHT22;9177;49.156;8.142;2023-07-02T09:51:04;25.00;92.70
18101;DHT22;9177;49.156;8.142;2023-07-02T09:53:31;25.00;92.50
18101;DHT22;9177;49.156;8.142;2023-07-02T09:56:00;25.00;92.60
18101;DHT22;9177;49.156;8.142;2023-07-02T09:58:27;24.80;92.60
18101;DHT22;9177;49.156;8.142;2023-07-02T10:00:57;25.00;92.70
18101;DHT22;9177;49.156;8.142;2023-07-02T10:03:31;25.00;92.40
18101;DHT22;9177;49.156;8.142;2023-07-02T10:06:05;25.00;92.40
18101;DHT22;9177;49.156;8.142;2023-07-02T10:08:35;25.00;92.20
18101;DHT22;9177;49.156;8.142;2023-07-02T10:11:11;25.00;92.10
18101;DHT22;9177;49.156;8.142;2023-07-02T10:13:43;25.10;92.00
18101;DHT22;9177;49.156;8.142;2023-07-02T10:16:17;25.00;91.80
18101;DHT22;9177;49.156;8.142;2023-07-02T10:18:49;25.10;91.90
18101;DHT22;9177;49.156;8.142;2023-07-02T10:21:20;25.10;91.80
18101;DHT22;9177;49.156;8.142;2023-07-02T10:23:51;25.20;91.80
18101;DHT22;9177;49.156;8.142;2023-07-02T10:26:22;25.20;91.80
18101;DHT22;9177;49.156;8.142;2023-07-02T10:28:58;25.20;91.70
18101;DHT22;9177;49.156;8.142;2023-07-02T10:31:26;25.30;91.70
18101;DHT22;9177;49.156;8.142;2023-07-02T10:33:53;25.30;91.70
18101;DHT22;9177;49.156;8.142;2023-07-02T10:36:21;25.40;91.50
18101;DHT22;9177;49.156;8.142;2023-07-02T10:38:49;25.30;91.50
18101;DHT22;9177;49.156;8.142;2023-07-02T10:41:28;25.30;91.30
18101;DHT22;9177;49.156;8.142;2023-07-02T10:44:05;25.20;91.30
18101;DHT22;9177;49.156;8.142;2023-07-02T10:46:33;25.20;91.50
18101;DHT22;9177;49.156;8.142;2023-07-02T10:49:00;25.30;91.20
18101;DHT22;9177;49.156;8.142;2023-07-02T10:51:27;25.30;91.30
18101;DHT22;9177;49.156;8.142;2023-07-02T10:53:58;25.30;91.30
18101;DHT22;9177;49.156;8.142;2023-07-02T10:56:27;25.40;91.30
18101;DHT22;9177;49.156;8.142;2023-07-02T10:58:55;25.40;91.30
18101;DHT22;9177;49.156;8.142;2023-07-02T11:01:23;25.30;91.30
18101;DHT22;9177;49.156;8.142;2023-07-02T11:03:56;25.30;91.40
18101;DHT22;9177;49.156;8.142;2023-07-02T11:06:24;25.30;91.30
18101;DHT22;9177;49.156;8.142;2023-07-02T11:08:51;25.30;91.40
18101;DHT22;9177;49.156;8.142;2023-07-02T11:11:20;25.30;91.40
18101;DHT22;9177;49.156;8.142;2023-07-02T11:13:51;25.40;91.40
18101;DHT22;9177;49.156;8.142;2023-07-02T11:16:26;25.40;91.50
18101;DHT22;9177;49.156;8.142;2023-07-02T11:19:05;25.40;91.40
18101;DHT22;9177;49.156;8.142;2023-07-02T11:21:33;25.40;91.20
18101;DHT22;9177;49.156;8.142;2023-07-02T11:24:05;25.50;91.20
18101;DHT22;9177;49.156;8.142;2023-07-02T11:26:36;25.40;91.30
18101;DHT22;9177;49.156;8.142;2023-07-02T11:29:10;25.50;91.30
18101;DHT22;9177;49.156;8.142;2023-07-02T11:31:37;25.50;91.30
18101;DHT22;9177;49.156;8.142;2023-07-02T11:34:12;25.50;91.30
18101;DHT22;9177;49.156;8.142;2023-07-02T11:36:39;25.40;91.30
18101;DHT22;9177;49.156;8.142;2023-07-02T11:39:06;25.50;91.40
18101;DHT22;9177;49.156;8.142;2023-07-02T11:41:37;25.40;91.40
18101;DHT22;9177;49.156;8.142;2023-07-02T11:44:06;25.40;91.40
18101;DHT22;9177;49.156;8.142;2023-07-02T11:46:33;25.40;91.50
18101;DHT22;9177;49.156;8.142;2023-07-02T11:49:01;25.40;91.40
18101;DHT22;9177;49.156;8.142;2023-07-02T11:51:29;25.40;91.30
18101;DHT22;9177;49.156;8.142;2023-07-02T11:53:57;25.40;91.50
18101;DHT22;9177;49.156;8.142;2023-07-02T11:56:24;25.50;91.50
18101;DHT22;9177;49.156;8.142;2023-07-02T11:58:51;25.50;91.40
18101;DHT22;9177;49.156;8.142;2023-07-02T12:01:19;25.40;91.30
18101;DHT22;9177;49.156;8.142;2023-07-02T12:03:46;25.40;91.20
18101;DHT22;9177;49.156;8.142;2023-07-02T12:06:14;25.40;91.70
18101;DHT22;9177;49.156;8.142;2023-07-02T12:08:41;25.40;91.20
18101;DHT22;9177;49.156;8.142;2023-07-02T12:11:08;25.40;91.10
18101;DHT22;9177;49.156;8.142;2023-07-02T12:13:35;25.50;91.20
18101;DHT22;9177;49.156;8.142;2023-07-02T12:16:03;25.50;91.10
18101;DHT22;9177;49.156;8.142;2023-07-02T12:18:31;25.40;91.10
18101;DHT22;9177;49.156;8.142;2023-07-02T12:20:58;25.50;91.30
18101;DHT22;9177;49.156;8.142;2023-07-02T12:23:25;25.40;91.20
18101;DHT22;9177;49.156;8.142;2023-07-02T12:25:53;25.40;91.20
18101;DHT22;9177;49.156;8.142;2023-07-02T12:28:20;25.40;91.30
18101;DHT22;9177;49.156;8.142;2023-07-02T12:30:47;25.40;91.30
18101;DHT22;9177;49.156;8.142;2023-07-02T12:33:14;25.50;91.50
18101;DHT22;9177;49.156;8.142;2023-07-02T12:35:43;25.50;91.30
18101;DHT22;9177;49.156;8.142;2023-07-02T12:38:10;25.50;91.10
18101;DHT22;9177;49.156;8.142;2023-07-02T12:40:37;25.60;91.10
18101;DHT22;9177;49.156;8.142;2023-07-02T12:43:04;25.60;90.90
18101;DHT22;9177;49.156;8.142;2023-07-02T12:45:31;25.60;90.90
18101;DHT22;9177;49.156;8.142;2023-07-02T12:47:58;25.70;90.90
18101;DHT22;9177;49.156;8.142;2023-07-02T12:50:26;25.60;90.50
18101;DHT22;9177;49.156;8.142;2023-07-02T12:52:54;25.70;90.70
18101;DHT22;9177;49.156;8.142;2023-07-02T12:55:22;25.70;90.70
18101;DHT22;9177;49.156;8.142;2023-07-02T12:57:49;25.70;90.90
18101;DHT22;9177;49.156;8.142;2023-07-02T13:00:16;25.60;90.90
18101;DHT22;9177;49.156;8.142;2023-07-02T13:02:44;25.70;90.70
18101;DHT22;9177;49.156;8.142;2023-07-02T13:05:12;25.80;90.60
18101;DHT22;9177;49.156;8.142;2023-07-02T13:07:39;25.80;90.70
18101;DHT22;9177;49.156;8.142;2023-07-02T13:10:08;25.90;90.40
18101;DHT22;9177;49.156;8.142;2023-07-02T13:12:36;26.20;90.40
18101;DHT22;9177;49.156;8.142;2023-07-02T13:15:03;26.50;90.10
18101;DHT22;9177;49.156;8.142;2023-07-02T13:17:30;26.70;89.90
18101;DHT22;9177;49.156;8.142;2023-07-02T13:19:58;26.70;89.90
18101;DHT22;9177;49.156;8.142;2023-07-02T13:22:25;26.70;89.60
18101;DHT22;9177;49.156;8.142;2023-07-02T13:24:52;26.60;89.70
18101;DHT22;9177;49.156;8.142;2023-07-02T13:27:21;26.60;89.60
18101;DHT22;9177;49.156;8.142;2023-07-02T13:29:48;26.50;89.40
18101;DHT22;9177;49.156;8.142;2023-07-02T13:32:15;26.40;89.60
18101;DHT22;9177;49.156;8.142;2023-07-02T13:34:42;26.40;89.80
18101;DHT22;9177;49.156;8.142;2023-07-02T13:37:09;26.30;90.00
18101;DHT22;9177;49.156;8.142;2023-07-02T13:39:36;26.30;90.00
18101;DHT22;9177;49.156;8.142;2023-07-02T13:42:04;26.50;89.90
18101;DHT22;9177;49.156;8.142;2023-07-02T13:44:33;26.40;89.60
18101;DHT22;9177;49.156;8.142;2023-07-02T13:47:00;26.30;89.40
18101;DHT22;9177;49.156;8.142;2023-07-02T13:49:27;26.30;89.70
18101;DHT22;9177;49.156;8.142;2023-07-02T13:51:55;26.30;89.60
18101;DHT22;9177;49.156;8.142;2023-07-02T13:54:22;26.30;89.60
18101;DHT22;9177;49.156;8.142;2023-07-02T13:56:49;26.30;89.70
18101;DHT22;9177;49.156;8.142;2023-07-02T13:59:19;26.30;89.40
18101;DHT22;9177;49.156;8.142;2023-07-02T14:01:47;26.30;89.40
18101;DHT22;9177;49.156;8.142;2023-07-02T14:04:15;26.30;88.80
18101;DHT22;9177;49.156;8.142;2023-07-02T14:06:43;26.40;88.80
18101;DHT22;9177;49.156;8.142;2023-07-02T14:09:11;26.40;88.80
18101;DHT22;9177;49.156;8.142;2023-07-02T14:11:40;26.50;88.20
18101;DHT22;9177;49.156;8.142;2023-07-02T14:14:07;26.40;88.50
18101;DHT22;9177;49.156;8.142;2023-07-02T14:16:36;26.40;88.80
18101;DHT22;9177;49.156;8.142;2023-07-02T14:19:03;26.30;89.00
18101;DHT22;9177;49.156;8.142;2023-07-02T14:21:31;26.30;89.20
18101;DHT22;9177;49.156;8.142;2023-07-02T14:23:58;26.30;89.30
18101;DHT22;9177;49.156;8.142;2023-07-02T14:26:25;26.30;89.00
18101;DHT22;9177;49.156;8.142;2023-07-02T14:28:53;26.30;89.40
18101;DHT22;9177;49.156;8.142;2023-07-02T14:31:20;26.20;89.40
18101;DHT22;9177;49.156;8.142;2023-07-02T14:33:49;26.30;89.30
18101;DHT22;9177;49.156;8.142;2023-07-02T14:36:16;26.20;89.50
18101;DHT22;9177;49.156;8.142;2023-07-02T14:38:43;26.20;89.50
18101;DHT22;9177;49.156;8.142;2023-07-02T14:41:11;26.30;88.80
18101;DHT22;9177;49.156;8.142;2023-07-02T14:43:41;26.30;89.00
18101;DHT22;9177;49.156;8.142;2023-07-02T14:46:09;26.30;89.20
18101;DHT22;9177;49.156;8.142;2023-07-02T14:48:37;26.30;89.40
18101;DHT22;9177;49.156;8.142;2023-07-02T14:51:05;26.30;89.30
18101;DHT22;9177;49.156;8.142;2023-07-02T14:53:33;26.30;89.20
18101;DHT22;9177;49.156;8.142;2023-07-02T14:56:01;26.30;88.90
18101;DHT22;9177;49.156;8.142;2023-07-02T14:58:29;26.30;88.80
18101;DHT22;9177;49.156;8.142;2023-07-02T15:00:58;26.30;88.90
18101;DHT22;9177;49.156;8.142;2023-07-02T15:03:26;26.60;88.40
18101;DHT22;9177;49.156;8.142;2023-07-02T15:05:54;26.80;88.10
18101;DHT22;9177;49.156;8.142;2023-07-02T15:08:23;26.80;87.80
18101;DHT22;9177;49.156;8.142;2023-07-02T15:10:52;26.90;87.60
18101;DHT22;9177;49.156;8.142;2023-07-02T15:13:20;26.90;87.40
18101;DHT22;9177;49.156;8.142;2023-07-02T15:15:49;26.80;87.40
18101;DHT22;9177;49.156;8.142;2023-07-02T15:18:16;26.60;87.70
18101;DHT22;9177;49.156;8.142;2023-07-02T15:20:44;26.50;88.00
18101;DHT22;9177;49.156;8.142;2023-07-02T15:23:13;26.40;88.00
18101;DHT22;9177;49.156;8.142;2023-07-02T15:25:42;26.40;88.20
18101;DHT22;9177;49.156;8.142;2023-07-02T15:28:09;26.40;88.30
18101;DHT22;9177;49.156;8.142;2023-07-02T15:30:38;26.40;88.30
18101;DHT22;9177;49.156;8.142;2023-07-02T15:33:05;26.40;88.30
18101;DHT22;9177;49.156;8.142;2023-07-02T15:35:32;26.30;88.20
18101;DHT22;9177;49.156;8.142;2023-07-02T15:38:00;26.30;88.20
18101;DHT22;9177;49.156;8.142;2023-07-02T15:40:27;26.30;88.10
18101;DHT22;9177;49.156;8.142;2023-07-02T15:42:59;26.30;88.30
18101;DHT22;9177;49.156;8.142;2023-07-02T15:45:26;26.30;88.30
18101;DHT22;9177;49.156;8.142;2023-07-02T15:47:53;26.30;88.30